Hilltop Lakes, Texas
Current Conditions -  °F | °C
As of 10:55 AM on Thursday 23 Oct 2014 (Local Time) from KCFD Reporting Station
Clear Clear  
Wind Chill: 69°   Ceiling: Unl
Heat Index: 69°   Visibility: 10mi
Dew Point: 57°   Wind: 5mph
Humidity: 67%   Direction: 90°E
Pressure: 30.18"   Gusts: NA
Location:  31.1118°N, 96.1332°W
Report Text: KCFD 231555Z AUTO 09004KT 10SM CLR 20/14 A3018 RMK AO2 T02030139
Loading
Personal Weather Stations






























Interactive Weather Map
Tropical Storm Tracking
New forecast layout! Learn more

10-Day Weather Forecast

Advertisements
Track Severe Weather on mobile